sensor_id;sensor_type;location;lat;lon;timestamp;P1;durP1;ratioP1;P2;durP2;ratioP2
6251;SDS011;3159;52.414;9.784;2024-01-27T00:01:43;10.97;;;2.77;;
6251;SDS011;3159;52.414;9.784;2024-01-27T00:04:10;11.27;;;2.60;;
6251;SDS011;3159;52.414;9.784;2024-01-27T00:06:39;16.00;;;2.67;;
6251;SDS011;3159;52.414;9.784;2024-01-27T00:09:06;12.17;;;2.83;;
6251;SDS011;3159;52.414;9.784;2024-01-27T00:11:32;14.17;;;2.63;;
6251;SDS011;3159;52.414;9.784;2024-01-27T00:14:00;13.90;;;2.80;;
6251;SDS011;3159;52.414;9.784;2024-01-27T00:16:28;10.87;;;2.63;;
6251;SDS011;3159;52.414;9.784;2024-01-27T00:18:54;15.93;;;2.80;;
6251;SDS011;3159;52.414;9.784;2024-01-27T00:21:21;11.87;;;3.17;;
6251;SDS011;3159;52.414;9.784;2024-01-27T00:23:49;10.60;;;2.27;;
6251;SDS011;3159;52.414;9.784;2024-01-27T00:26:16;13.20;;;2.53;;
6251;SDS011;3159;52.414;9.784;2024-01-27T00:28:43;9.73;;;2.63;;
6251;SDS011;3159;52.414;9.784;2024-01-27T00:31:10;15.23;;;3.03;;
6251;SDS011;3159;52.414;9.784;2024-01-27T00:33:37;12.57;;;3.10;;
6251;SDS011;3159;52.414;9.784;2024-01-27T00:36:04;16.13;;;3.07;;
6251;SDS011;3159;52.414;9.784;2024-01-27T00:38:31;13.00;;;2.77;;
6251;SDS011;3159;52.414;9.784;2024-01-27T00:40:59;14.37;;;2.80;;
6251;SDS011;3159;52.414;9.784;2024-01-27T00:43:26;13.73;;;2.67;;
6251;SDS011;3159;52.414;9.784;2024-01-27T00:45:53;12.73;;;3.00;;
6251;SDS011;3159;52.414;9.784;2024-01-27T00:48:20;11.87;;;2.83;;
6251;SDS011;3159;52.414;9.784;2024-01-27T00:50:47;8.27;;;2.67;;
6251;SDS011;3159;52.414;9.784;2024-01-27T00:53:14;15.37;;;3.10;;
6251;SDS011;3159;52.414;9.784;2024-01-27T00:55:41;13.20;;;2.90;;
6251;SDS011;3159;52.414;9.784;2024-01-27T00:58:09;9.47;;;3.03;;
6251;SDS011;3159;52.414;9.784;2024-01-27T01:00:36;15.63;;;3.23;;
6251;SDS011;3159;52.414;9.784;2024-01-27T01:03:03;11.90;;;2.47;;
6251;SDS011;3159;52.414;9.784;2024-01-27T01:05:30;16.20;;;3.30;;
6251;SDS011;3159;52.414;9.784;2024-01-27T01:07:57;13.40;;;2.60;;
6251;SDS011;3159;52.414;9.784;2024-01-27T01:10:24;15.77;;;2.67;;
6251;SDS011;3159;52.414;9.784;2024-01-27T01:12:51;12.73;;;2.97;;
6251;SDS011;3159;52.414;9.784;2024-01-27T01:15:19;10.47;;;2.30;;
6251;SDS011;3159;52.414;9.784;2024-01-27T01:17:46;14.43;;;3.00;;
6251;SDS011;3159;52.414;9.784;2024-01-27T01:20:13;12.53;;;3.37;;
6251;SDS011;3159;52.414;9.784;2024-01-27T01:22:40;18.73;;;3.13;;
6251;SDS011;3159;52.414;9.784;2024-01-27T01:25:07;9.97;;;2.40;;
6251;SDS011;3159;52.414;9.784;2024-01-27T01:27:34;12.93;;;3.13;;
6251;SDS011;3159;52.414;9.784;2024-01-27T01:30:01;14.80;;;2.90;;
6251;SDS011;3159;52.414;9.784;2024-01-27T01:32:29;14.30;;;2.80;;
6251;SDS011;3159;52.414;9.784;2024-01-27T01:34:56;16.40;;;3.67;;
6251;SDS011;3159;52.414;9.784;2024-01-27T01:37:23;10.17;;;2.70;;
6251;SDS011;3159;52.414;9.784;2024-01-27T01:39:50;14.43;;;2.83;;
6251;SDS011;3159;52.414;9.784;2024-01-27T01:42:16;18.67;;;3.00;;
6251;SDS011;3159;52.414;9.784;2024-01-27T01:44:45;13.03;;;2.57;;
6251;SDS011;3159;52.414;9.784;2024-01-27T01:47:12;16.27;;;3.13;;
6251;SDS011;3159;52.414;9.784;2024-01-27T01:49:40;10.40;;;2.60;;
6251;SDS011;3159;52.414;9.784;2024-01-27T01:52:07;12.93;;;3.07;;
6251;SDS011;3159;52.414;9.784;2024-01-27T01:54:34;15.80;;;3.40;;
6251;SDS011;3159;52.414;9.784;2024-01-27T01:57:01;16.43;;;3.13;;
6251;SDS011;3159;52.414;9.784;2024-01-27T01:59:29;13.80;;;2.73;;
6251;SDS011;3159;52.414;9.784;2024-01-27T02:01:56;12.60;;;3.03;;
6251;SDS011;3159;52.414;9.784;2024-01-27T02:04:23;19.33;;;3.53;;
6251;SDS011;3159;52.414;9.784;2024-01-27T02:06:51;13.67;;;3.13;;
6251;SDS011;3159;52.414;9.784;2024-01-27T02:09:18;10.90;;;2.70;;
6251;SDS011;3159;52.414;9.784;2024-01-27T02:11:44;14.40;;;2.80;;
6251;SDS011;3159;52.414;9.784;2024-01-27T02:14:11;12.33;;;2.87;;
6251;SDS011;3159;52.414;9.784;2024-01-27T02:16:38;14.43;;;2.60;;
6251;SDS011;3159;52.414;9.784;2024-01-27T02:19:05;16.30;;;3.10;;
6251;SDS011;3159;52.414;9.784;2024-01-27T02:21:32;13.70;;;3.17;;
6251;SDS011;3159;52.414;9.784;2024-01-27T02:24:00;11.23;;;2.50;;
6251;SDS011;3159;52.414;9.784;2024-01-27T02:26:28;12.90;;;2.43;;
6251;SDS011;3159;52.414;9.784;2024-01-27T02:28:55;16.23;;;2.97;;
6251;SDS011;3159;52.414;9.784;2024-01-27T02:31:22;13.07;;;3.07;;
6251;SDS011;3159;52.414;9.784;2024-01-27T02:33:49;14.60;;;2.77;;
6251;SDS011;3159;52.414;9.784;2024-01-27T02:36:16;17.20;;;3.23;;
6251;SDS011;3159;52.414;9.784;2024-01-27T02:38:43;11.80;;;3.00;;
6251;SDS011;3159;52.414;9.784;2024-01-27T02:41:09;9.83;;;2.90;;
6251;SDS011;3159;52.414;9.784;2024-01-27T02:43:38;13.87;;;3.03;;
6251;SDS011;3159;52.414;9.784;2024-01-27T02:46:06;9.97;;;2.70;;
6251;SDS011;3159;52.414;9.784;2024-01-27T02:48:39;13.40;;;2.93;;
6251;SDS011;3159;52.414;9.784;2024-01-27T02:51:06;11.90;;;2.83;;
6251;SDS011;3159;52.414;9.784;2024-01-27T02:53:33;8.97;;;2.60;;
6251;SDS011;3159;52.414;9.784;2024-01-27T02:56:00;14.33;;;3.40;;
6251;SDS011;3159;52.414;9.784;2024-01-27T02:58:27;14.63;;;3.10;;
6251;SDS011;3159;52.414;9.784;2024-01-27T03:00:55;10.77;;;2.63;;
6251;SDS011;3159;52.414;9.784;2024-01-27T03:03:22;13.80;;;2.80;;
6251;SDS011;3159;52.414;9.784;2024-01-27T03:05:48;14.33;;;3.07;;
6251;SDS011;3159;52.414;9.784;2024-01-27T03:08:15;11.80;;;2.77;;
6251;SDS011;3159;52.414;9.784;2024-01-27T03:10:42;9.53;;;2.60;;
6251;SDS011;3159;52.414;9.784;2024-01-27T03:13:09;22.17;;;3.33;;
6251;SDS011;3159;52.414;9.784;2024-01-27T03:15:36;14.20;;;3.30;;
6251;SDS011;3159;52.414;9.784;2024-01-27T03:18:05;10.63;;;2.70;;
6251;SDS011;3159;52.414;9.784;2024-01-27T03:20:31;13.27;;;3.20;;
6251;SDS011;3159;52.414;9.784;2024-01-27T03:22:57;14.10;;;2.77;;
6251;SDS011;3159;52.414;9.784;2024-01-27T03:25:24;14.97;;;2.77;;
6251;SDS011;3159;52.414;9.784;2024-01-27T03:27:51;15.40;;;3.77;;
6251;SDS011;3159;52.414;9.784;2024-01-27T03:30:18;12.27;;;3.00;;
6251;SDS011;3159;52.414;9.784;2024-01-27T03:32:45;13.33;;;2.90;;
6251;SDS011;3159;52.414;9.784;2024-01-27T03:35:14;11.63;;;2.90;;
6251;SDS011;3159;52.414;9.784;2024-01-27T03:37:41;11.63;;;2.60;;
6251;SDS011;3159;52.414;9.784;2024-01-27T03:40:10;15.80;;;2.90;;
6251;SDS011;3159;52.414;9.784;2024-01-27T03:42:37;14.00;;;3.27;;
6251;SDS011;3159;52.414;9.784;2024-01-27T03:45:04;8.07;;;2.80;;
6251;SDS011;3159;52.414;9.784;2024-01-27T03:47:32;11.30;;;2.93;;
6251;SDS011;3159;52.414;9.784;2024-01-27T03:49:59;12.83;;;2.40;;
6251;SDS011;3159;52.414;9.784;2024-01-27T03:52:27;18.47;;;3.73;;
6251;SDS011;3159;52.414;9.784;2024-01-27T03:54:54;13.90;;;3.13;;
6251;SDS011;3159;52.414;9.784;2024-01-27T03:57:20;12.50;;;2.63;;
6251;SDS011;3159;52.414;9.784;2024-01-27T03:59:47;15.13;;;2.90;;
6251;SDS011;3159;52.414;9.784;2024-01-27T04:02:14;12.77;;;3.23;;
6251;SDS011;3159;52.414;9.784;2024-01-27T04:04:41;19.40;;;3.33;;
6251;SDS011;3159;52.414;9.784;2024-01-27T04:07:08;13.70;;;2.67;;
6251;SDS011;3159;52.414;9.784;2024-01-27T04:09:36;11.47;;;3.00;;
6251;SDS011;3159;52.414;9.784;2024-01-27T04:12:03;11.07;;;2.80;;
6251;SDS011;3159;52.414;9.784;2024-01-27T04:14:30;8.63;;;2.37;;
6251;SDS011;3159;52.414;9.784;2024-01-27T04:16:57;12.77;;;2.70;;
6251;SDS011;3159;52.414;9.784;2024-01-27T04:19:24;11.57;;;2.83;;
6251;SDS011;3159;52.414;9.784;2024-01-27T04:21:50;11.93;;;2.33;;
6251;SDS011;3159;52.414;9.784;2024-01-27T04:24:17;14.13;;;2.70;;
6251;SDS011;3159;52.414;9.784;2024-01-27T04:26:45;12.90;;;3.00;;
6251;SDS011;3159;52.414;9.784;2024-01-27T04:29:12;11.97;;;2.87;;
6251;SDS011;3159;52.414;9.784;2024-01-27T04:31:40;11.47;;;3.07;;
6251;SDS011;3159;52.414;9.784;2024-01-27T04:34:07;12.83;;;2.70;;
6251;SDS011;3159;52.414;9.784;2024-01-27T04:36:35;15.43;;;3.03;;
6251;SDS011;3159;52.414;9.784;2024-01-27T04:39:02;6.57;;;2.50;;
6251;SDS011;3159;52.414;9.784;2024-01-27T04:41:29;8.77;;;2.67;;
6251;SDS011;3159;52.414;9.784;2024-01-27T04:43:57;13.73;;;2.20;;
6251;SDS011;3159;52.414;9.784;2024-01-27T04:46:24;14.50;;;2.53;;
6251;SDS011;3159;52.414;9.784;2024-01-27T04:48:51;9.07;;;2.67;;
6251;SDS011;3159;52.414;9.784;2024-01-27T04:51:18;11.93;;;2.67;;
6251;SDS011;3159;52.414;9.784;2024-01-27T04:53:45;13.47;;;2.70;;
6251;SDS011;3159;52.414;9.784;2024-01-27T04:56:11;12.83;;;2.70;;
6251;SDS011;3159;52.414;9.784;2024-01-27T04:58:38;10.63;;;2.60;;
6251;SDS011;3159;52.414;9.784;2024-01-27T05:01:07;11.93;;;2.70;;
6251;SDS011;3159;52.414;9.784;2024-01-27T05:03:34;11.20;;;3.00;;
6251;SDS011;3159;52.414;9.784;2024-01-27T05:06:01;10.00;;;2.57;;
6251;SDS011;3159;52.414;9.784;2024-01-27T05:08:28;13.27;;;2.43;;
6251;SDS011;3159;52.414;9.784;2024-01-27T05:10:55;12.07;;;2.23;;
6251;SDS011;3159;52.414;9.784;2024-01-27T05:13:22;8.93;;;2.63;;
6251;SDS011;3159;52.414;9.784;2024-01-27T05:15:49;8.70;;;2.27;;
6251;SDS011;3159;52.414;9.784;2024-01-27T05:18:17;11.10;;;2.70;;
6251;SDS011;3159;52.414;9.784;2024-01-27T05:20:44;9.93;;;2.83;;
6251;SDS011;3159;52.414;9.784;2024-01-27T05:23:11;9.80;;;2.87;;
6251;SDS011;3159;52.414;9.784;2024-01-27T05:25:37;10.50;;;2.37;;
6251;SDS011;3159;52.414;9.784;2024-01-27T05:28:05;8.97;;;2.67;;
6251;SDS011;3159;52.414;9.784;2024-01-27T05:30:32;10.97;;;2.67;;
6251;SDS011;3159;52.414;9.784;2024-01-27T05:32:59;16.93;;;2.80;;
6251;SDS011;3159;52.414;9.784;2024-01-27T05:35:27;16.63;;;2.90;;
6251;SDS011;3159;52.414;9.784;2024-01-27T05:37:54;11.20;;;2.80;;
6251;SDS011;3159;52.414;9.784;2024-01-27T05:40:21;10.07;;;2.87;;
6251;SDS011;3159;52.414;9.784;2024-01-27T05:42:48;9.00;;;2.60;;
6251;SDS011;3159;52.414;9.784;2024-01-27T05:45:15;12.60;;;2.57;;
6251;SDS011;3159;52.414;9.784;2024-01-27T05:47:42;12.27;;;2.90;;
6251;SDS011;3159;52.414;9.784;2024-01-27T05:50:09;9.40;;;2.50;;
6251;SDS011;3159;52.414;9.784;2024-01-27T05:52:37;9.50;;;2.77;;
6251;SDS011;3159;52.414;9.784;2024-01-27T05:55:05;14.60;;;2.60;;
6251;SDS011;3159;52.414;9.784;2024-01-27T05:57:32;9.27;;;2.70;;
6251;SDS011;3159;52.414;9.784;2024-01-27T05:59:59;8.00;;;2.43;;
6251;SDS011;3159;52.414;9.784;2024-01-27T06:02:26;14.13;;;2.67;;
6251;SDS011;3159;52.414;9.784;2024-01-27T06:04:53;7.20;;;2.90;;
6251;SDS011;3159;52.414;9.784;2024-01-27T06:07:19;8.43;;;2.70;;
6251;SDS011;3159;52.414;9.784;2024-01-27T06:09:48;7.53;;;2.10;;
6251;SDS011;3159;52.414;9.784;2024-01-27T06:12:14;11.40;;;2.93;;
6251;SDS011;3159;52.414;9.784;2024-01-27T06:14:41;10.27;;;2.30;;
6251;SDS011;3159;52.414;9.784;2024-01-27T06:17:08;11.90;;;2.40;;
6251;SDS011;3159;52.414;9.784;2024-01-27T06:19:35;6.80;;;2.10;;
6251;SDS011;3159;52.414;9.784;2024-01-27T06:22:02;8.77;;;2.50;;
6251;SDS011;3159;52.414;9.784;2024-01-27T06:24:28;7.90;;;2.20;;
6251;SDS011;3159;52.414;9.784;2024-01-27T06:26:57;6.67;;;2.03;;
6251;SDS011;3159;52.414;9.784;2024-01-27T06:29:23;6.90;;;2.63;;
6251;SDS011;3159;52.414;9.784;2024-01-27T06:31:52;15.73;;;2.87;;
6251;SDS011;3159;52.414;9.784;2024-01-27T06:34:18;8.57;;;2.67;;
6251;SDS011;3159;52.414;9.784;2024-01-27T06:36:45;9.07;;;2.60;;
6251;SDS011;3159;52.414;9.784;2024-01-27T06:39:12;8.97;;;2.83;;
6251;SDS011;3159;52.414;9.784;2024-01-27T06:41:39;7.17;;;2.17;;
6251;SDS011;3159;52.414;9.784;2024-01-27T06:44:07;9.57;;;2.77;;
6251;SDS011;3159;52.414;9.784;2024-01-27T06:46:34;7.87;;;2.70;;
6251;SDS011;3159;52.414;9.784;2024-01-27T06:49:01;11.07;;;2.70;;
6251;SDS011;3159;52.414;9.784;2024-01-27T06:51:28;7.93;;;2.20;;
6251;SDS011;3159;52.414;9.784;2024-01-27T06:53:54;8.93;;;2.30;;
6251;SDS011;3159;52.414;9.784;2024-01-27T06:56:21;13.70;;;2.80;;
6251;SDS011;3159;52.414;9.784;2024-01-27T06:58:48;7.97;;;2.10;;
6251;SDS011;3159;52.414;9.784;2024-01-27T07:01:16;9.80;;;2.63;;
6251;SDS011;3159;52.414;9.784;2024-01-27T07:03:43;12.43;;;2.53;;
6251;SDS011;3159;52.414;9.784;2024-01-27T07:06:10;8.07;;;2.80;;
6251;SDS011;3159;52.414;9.784;2024-01-27T07:08:37;8.73;;;2.70;;
6251;SDS011;3159;52.414;9.784;2024-01-27T07:11:04;8.97;;;2.87;;
6251;SDS011;3159;52.414;9.784;2024-01-27T07:13:31;10.17;;;2.70;;
6251;SDS011;3159;52.414;9.784;2024-01-27T07:15:58;11.00;;;2.93;;
6251;SDS011;3159;52.414;9.784;2024-01-27T07:18:26;8.73;;;2.97;;
6251;SDS011;3159;52.414;9.784;2024-01-27T07:20:54;7.73;;;2.50;;
6251;SDS011;3159;52.414;9.784;2024-01-27T07:23:21;13.43;;;3.43;;
6251;SDS011;3159;52.414;9.784;2024-01-27T07:25:48;13.37;;;3.67;;
6251;SDS011;3159;52.414;9.784;2024-01-27T07:28:14;11.73;;;2.97;;
6251;SDS011;3159;52.414;9.784;2024-01-27T07:30:43;10.23;;;3.27;;
6251;SDS011;3159;52.414;9.784;2024-01-27T07:33:10;5.23;;;2.53;;
6251;SDS011;3159;52.414;9.784;2024-01-27T07:35:38;8.93;;;2.73;;
6251;SDS011;3159;52.414;9.784;2024-01-27T07:38:07;9.67;;;3.43;;
6251;SDS011;3159;52.414;9.784;2024-01-27T07:40:34;9.37;;;2.67;;
6251;SDS011;3159;52.414;9.784;2024-01-27T07:43:01;14.47;;;3.50;;
6251;SDS011;3159;52.414;9.784;2024-01-27T07:45:28;10.50;;;3.20;;
6251;SDS011;3159;52.414;9.784;2024-01-27T07:47:55;7.40;;;2.73;;
6251;SDS011;3159;52.414;9.784;2024-01-27T07:50:22;13.20;;;3.33;;
6251;SDS011;3159;52.414;9.784;2024-01-27T07:52:50;9.00;;;2.80;;
6251;SDS011;3159;52.414;9.784;2024-01-27T07:55:17;9.50;;;3.17;;
6251;SDS011;3159;52.414;9.784;2024-01-27T07:57:44;13.87;;;3.10;;
6251;SDS011;3159;52.414;9.784;2024-01-27T08:00:11;8.23;;;2.80;;
6251;SDS011;3159;52.414;9.784;2024-01-27T08:02:39;10.63;;;3.07;;
6251;SDS011;3159;52.414;9.784;2024-01-27T08:05:06;14.23;;;3.33;;
6251;SDS011;3159;52.414;9.784;2024-01-27T08:07:34;15.77;;;3.33;;
6251;SDS011;3159;52.414;9.784;2024-01-27T08:10:02;11.07;;;3.20;;
6251;SDS011;3159;52.414;9.784;2024-01-27T08:12:30;10.73;;;2.83;;
6251;SDS011;3159;52.414;9.784;2024-01-27T08:14:56;11.80;;;2.80;;
6251;SDS011;3159;52.414;9.784;2024-01-27T08:17:23;14.00;;;2.63;;
6251;SDS011;3159;52.414;9.784;2024-01-27T08:19:50;11.40;;;3.03;;
6251;SDS011;3159;52.414;9.784;2024-01-27T08:22:17;10.73;;;3.07;;
6251;SDS011;3159;52.414;9.784;2024-01-27T08:24:44;9.50;;;2.90;;
6251;SDS011;3159;52.414;9.784;2024-01-27T08:27:12;14.00;;;3.63;;
6251;SDS011;3159;52.414;9.784;2024-01-27T08:29:39;9.10;;;2.77;;
6251;SDS011;3159;52.414;9.784;2024-01-27T08:32:06;7.23;;;2.73;;
6251;SDS011;3159;52.414;9.784;2024-01-27T08:34:34;8.07;;;2.27;;
6251;SDS011;3159;52.414;9.784;2024-01-27T08:37:01;10.13;;;2.80;;
6251;SDS011;3159;52.414;9.784;2024-01-27T08:39:28;12.37;;;2.90;;
6251;SDS011;3159;52.414;9.784;2024-01-27T08:41:55;14.70;;;3.40;;
6251;SDS011;3159;52.414;9.784;2024-01-27T08:44:24;10.60;;;2.80;;
6251;SDS011;3159;52.414;9.784;2024-01-27T08:46:51;11.40;;;3.20;;
6251;SDS011;3159;52.414;9.784;2024-01-27T08:49:18;6.77;;;2.80;;
6251;SDS011;3159;52.414;9.784;2024-01-27T08:51:45;11.47;;;2.90;;
6251;SDS011;3159;52.414;9.784;2024-01-27T08:54:11;15.93;;;3.40;;
6251;SDS011;3159;52.414;9.784;2024-01-27T08:56:39;11.17;;;2.80;;
6251;SDS011;3159;52.414;9.784;2024-01-27T08:59:06;11.23;;;2.73;;
6251;SDS011;3159;52.414;9.784;2024-01-27T09:01:35;7.87;;;2.60;;
6251;SDS011;3159;52.414;9.784;2024-01-27T09:04:02;10.90;;;3.20;;
6251;SDS011;3159;52.414;9.784;2024-01-27T09:06:29;12.20;;;2.93;;
6251;SDS011;3159;52.414;9.784;2024-01-27T09:08:55;14.33;;;3.60;;
6251;SDS011;3159;52.414;9.784;2024-01-27T09:11:23;11.10;;;2.73;;
6251;SDS011;3159;52.414;9.784;2024-01-27T09:13:52;11.70;;;3.17;;
6251;SDS011;3159;52.414;9.784;2024-01-27T09:16:19;9.63;;;3.13;;
6251;SDS011;3159;52.414;9.784;2024-01-27T09:18:48;7.47;;;3.30;;
6251;SDS011;3159;52.414;9.784;2024-01-27T09:21:16;13.20;;;3.37;;
6251;SDS011;3159;52.414;9.784;2024-01-27T09:23:45;10.27;;;3.13;;
6251;SDS011;3159;52.414;9.784;2024-01-27T09:26:12;10.10;;;3.10;;
6251;SDS011;3159;52.414;9.784;2024-01-27T09:28:40;12.10;;;3.33;;
6251;SDS011;3159;52.414;9.784;2024-01-27T09:31:08;11.17;;;3.47;;
6251;SDS011;3159;52.414;9.784;2024-01-27T09:33:36;12.90;;;3.70;;
6251;SDS011;3159;52.414;9.784;2024-01-27T09:36:04;12.87;;;3.57;;
6251;SDS011;3159;52.414;9.784;2024-01-27T09:38:31;9.20;;;3.23;;
6251;SDS011;3159;52.414;9.784;2024-01-27T09:40:58;8.97;;;3.13;;
6251;SDS011;3159;52.414;9.784;2024-01-27T09:43:25;14.90;;;3.67;;
6251;SDS011;3159;52.414;9.784;2024-01-27T09:45:54;8.53;;;3.53;;
6251;SDS011;3159;52.414;9.784;2024-01-27T09:48:21;7.97;;;3.10;;
6251;SDS011;3159;52.414;9.784;2024-01-27T09:50:48;13.90;;;3.20;;
6251;SDS011;3159;52.414;9.784;2024-01-27T09:53:18;11.33;;;3.80;;
6251;SDS011;3159;52.414;9.784;2024-01-27T09:55:45;12.63;;;3.80;;
6251;SDS011;3159;52.414;9.784;2024-01-27T09:58:12;11.83;;;3.87;;
6251;SDS011;3159;52.414;9.784;2024-01-27T10:00:40;11.67;;;3.70;;
6251;SDS011;3159;52.414;9.784;2024-01-27T10:03:07;9.70;;;3.17;;
6251;SDS011;3159;52.414;9.784;2024-01-27T10:05:35;13.17;;;3.90;;
6251;SDS011;3159;52.414;9.784;2024-01-27T10:08:05;12.63;;;3.73;;
6251;SDS011;3159;52.414;9.784;2024-01-27T10:10:34;11.23;;;4.50;;
6251;SDS011;3159;52.414;9.784;2024-01-27T10:13:01;9.27;;;4.03;;
6251;SDS011;3159;52.414;9.784;2024-01-27T10:15:31;9.73;;;3.97;;
6251;SDS011;3159;52.414;9.784;2024-01-27T10:18:04;16.20;;;4.00;;
6251;SDS011;3159;52.414;9.784;2024-01-27T10:20:31;11.97;;;4.03;;
6251;SDS011;3159;52.414;9.784;2024-01-27T10:22:59;11.10;;;3.77;;
6251;SDS011;3159;52.414;9.784;2024-01-27T10:25:38;11.23;;;4.30;;
6251;SDS011;3159;52.414;9.784;2024-01-27T10:28:05;13.20;;;4.37;;
6251;SDS011;3159;52.414;9.784;2024-01-27T10:30:33;10.03;;;4.13;;
6251;SDS011;3159;52.414;9.784;2024-01-27T10:32:59;14.00;;;3.97;;
6251;SDS011;3159;52.414;9.784;2024-01-27T10:35:26;11.47;;;4.20;;
6251;SDS011;3159;52.414;9.784;2024-01-27T10:37:53;14.83;;;4.50;;
6251;SDS011;3159;52.414;9.784;2024-01-27T10:40:22;15.50;;;4.17;;
6251;SDS011;3159;52.414;9.784;2024-01-27T10:43:00;14.10;;;5.20;;
6251;SDS011;3159;52.414;9.784;2024-01-27T10:45:29;17.33;;;5.67;;
6251;SDS011;3159;52.414;9.784;2024-01-27T10:48:04;11.03;;;4.33;;
6251;SDS011;3159;52.414;9.784;2024-01-27T10:50:34;16.90;;;5.20;;
6251;SDS011;3159;52.414;9.784;2024-01-27T10:53:03;12.23;;;4.43;;
6251;SDS011;3159;52.414;9.784;2024-01-27T10:55:31;12.97;;;4.43;;
6251;SDS011;3159;52.414;9.784;2024-01-27T10:58:02;11.77;;;5.13;;
6251;SDS011;3159;52.414;9.784;2024-01-27T11:00:29;12.53;;;5.33;;
6251;SDS011;3159;52.414;9.784;2024-01-27T11:02:57;9.67;;;4.80;;
6251;SDS011;3159;52.414;9.784;2024-01-27T11:05:26;10.27;;;4.80;;
6251;SDS011;3159;52.414;9.784;2024-01-27T11:07:55;11.87;;;4.53;;
6251;SDS011;3159;52.414;9.784;2024-01-27T11:10:23;17.70;;;5.03;;
6251;SDS011;3159;52.414;9.784;2024-01-27T11:12:51;7.63;;;3.67;;
6251;SDS011;3159;52.414;9.784;2024-01-27T11:15:21;13.97;;;5.10;;
6251;SDS011;3159;52.414;9.784;2024-01-27T11:17:48;18.83;;;5.43;;
6251;SDS011;3159;52.414;9.784;2024-01-27T11:20:15;15.73;;;4.97;;
6251;SDS011;3159;52.414;9.784;2024-01-27T11:22:42;11.40;;;4.50;;
6251;SDS011;3159;52.414;9.784;2024-01-27T11:25:14;12.00;;;4.53;;
6251;SDS011;3159;52.414;9.784;2024-01-27T11:27:43;13.50;;;4.93;;
6251;SDS011;3159;52.414;9.784;2024-01-27T11:30:26;12.33;;;4.63;;
6251;SDS011;3159;52.414;9.784;2024-01-27T11:32:54;13.90;;;4.73;;
6251;SDS011;3159;52.414;9.784;2024-01-27T11:35:21;12.73;;;4.73;;
6251;SDS011;3159;52.414;9.784;2024-01-27T11:37:48;15.10;;;4.77;;
6251;SDS011;3159;52.414;9.784;2024-01-27T11:40:15;11.50;;;4.47;;
6251;SDS011;3159;52.414;9.784;2024-01-27T11:42:42;8.73;;;4.60;;
6251;SDS011;3159;52.414;9.784;2024-01-27T11:45:09;15.77;;;5.13;;
6251;SDS011;3159;52.414;9.784;2024-01-27T11:47:38;13.77;;;4.33;;
6251;SDS011;3159;52.414;9.784;2024-01-27T11:50:05;10.37;;;4.67;;
6251;SDS011;3159;52.414;9.784;2024-01-27T11:52:33;13.90;;;4.33;;
6251;SDS011;3159;52.414;9.784;2024-01-27T11:55:00;14.90;;;4.47;;
6251;SDS011;3159;52.414;9.784;2024-01-27T11:57:27;11.13;;;4.63;;
6251;SDS011;3159;52.414;9.784;2024-01-27T11:59:54;9.67;;;4.30;;
6251;SDS011;3159;52.414;9.784;2024-01-27T12:02:21;13.80;;;4.17;;
6251;SDS011;3159;52.414;9.784;2024-01-27T12:04:51;15.83;;;5.27;;
6251;SDS011;3159;52.414;9.784;2024-01-27T12:07:19;12.90;;;4.97;;
6251;SDS011;3159;52.414;9.784;2024-01-27T12:09:46;9.20;;;4.43;;
6251;SDS011;3159;52.414;9.784;2024-01-27T12:12:14;14.20;;;4.80;;
6251;SDS011;3159;52.414;9.784;2024-01-27T12:14:44;12.13;;;4.53;;
6251;SDS011;3159;52.414;9.784;2024-01-27T12:17:12;10.77;;;4.20;;
6251;SDS011;3159;52.414;9.784;2024-01-27T12:19:45;12.63;;;4.07;;
6251;SDS011;3159;52.414;9.784;2024-01-27T12:22:22;11.17;;;4.80;;
6251;SDS011;3159;52.414;9.784;2024-01-27T12:24:51;10.73;;;4.37;;
6251;SDS011;3159;52.414;9.784;2024-01-27T12:27:18;15.23;;;4.83;;
6251;SDS011;3159;52.414;9.784;2024-01-27T12:29:46;10.37;;;4.20;;
6251;SDS011;3159;52.414;9.784;2024-01-27T12:32:14;11.17;;;4.03;;
6251;SDS011;3159;52.414;9.784;2024-01-27T12:34:41;13.43;;;4.20;;
6251;SDS011;3159;52.414;9.784;2024-01-27T12:37:10;10.50;;;3.80;;
6251;SDS011;3159;52.414;9.784;2024-01-27T12:39:41;14.50;;;4.03;;
6251;SDS011;3159;52.414;9.784;2024-01-27T12:42:09;10.20;;;3.80;;
6251;SDS011;3159;52.414;9.784;2024-01-27T12:44:36;13.80;;;4.37;;
6251;SDS011;3159;52.414;9.784;2024-01-27T12:47:03;12.20;;;4.00;;
6251;SDS011;3159;52.414;9.784;2024-01-27T12:49:30;11.77;;;3.93;;
6251;SDS011;3159;52.414;9.784;2024-01-27T12:51:57;13.73;;;3.67;;
6251;SDS011;3159;52.414;9.784;2024-01-27T12:54:24;10.17;;;3.43;;
6251;SDS011;3159;52.414;9.784;2024-01-27T12:56:52;13.43;;;4.17;;
6251;SDS011;3159;52.414;9.784;2024-01-27T12:59:19;15.57;;;4.60;;
6251;SDS011;3159;52.414;9.784;2024-01-27T13:01:46;9.70;;;3.90;;
6251;SDS011;3159;52.414;9.784;2024-01-27T13:04:13;10.37;;;4.10;;
6251;SDS011;3159;52.414;9.784;2024-01-27T13:06:40;14.50;;;3.77;;
6251;SDS011;3159;52.414;9.784;2024-01-27T13:09:07;10.70;;;4.37;;
6251;SDS011;3159;52.414;9.784;2024-01-27T13:11:36;14.60;;;4.23;;
6251;SDS011;3159;52.414;9.784;2024-01-27T13:14:04;13.20;;;3.80;;
6251;SDS011;3159;52.414;9.784;2024-01-27T13:16:31;11.07;;;3.13;;
6251;SDS011;3159;52.414;9.784;2024-01-27T13:18:59;8.83;;;3.70;;
6251;SDS011;3159;52.414;9.784;2024-01-27T13:21:25;10.97;;;3.60;;
6251;SDS011;3159;52.414;9.784;2024-01-27T13:23:52;14.13;;;3.93;;
6251;SDS011;3159;52.414;9.784;2024-01-27T13:26:19;12.73;;;3.83;;
6251;SDS011;3159;52.414;9.784;2024-01-27T13:28:46;13.80;;;3.53;;
6251;SDS011;3159;52.414;9.784;2024-01-27T13:31:15;13.10;;;3.23;;
6251;SDS011;3159;52.414;9.784;2024-01-27T13:33:43;13.10;;;3.73;;
6251;SDS011;3159;52.414;9.784;2024-01-27T13:36:10;10.60;;;3.47;;
6251;SDS011;3159;52.414;9.784;2024-01-27T13:38:36;8.93;;;3.27;;
6251;SDS011;3159;52.414;9.784;2024-01-27T13:41:03;12.77;;;4.17;;
6251;SDS011;3159;52.414;9.784;2024-01-27T13:43:30;9.23;;;3.23;;
6251;SDS011;3159;52.414;9.784;2024-01-27T13:45:57;8.20;;;3.30;;
6251;SDS011;3159;52.414;9.784;2024-01-27T13:48:25;10.37;;;3.83;;
6251;SDS011;3159;52.414;9.784;2024-01-27T13:50:52;12.57;;;3.77;;
6251;SDS011;3159;52.414;9.784;2024-01-27T13:53:19;11.73;;;3.30;;
6251;SDS011;3159;52.414;9.784;2024-01-27T13:55:46;11.40;;;3.37;;
6251;SDS011;3159;52.414;9.784;2024-01-27T13:58:13;13.83;;;3.57;;
6251;SDS011;3159;52.414;9.784;2024-01-27T14:00:40;9.50;;;3.03;;
6251;SDS011;3159;52.414;9.784;2024-01-27T14:03:06;7.43;;;3.00;;
6251;SDS011;3159;52.414;9.784;2024-01-27T14:05:35;13.87;;;3.77;;
6251;SDS011;3159;52.414;9.784;2024-01-27T14:08:03;12.30;;;3.53;;
6251;SDS011;3159;52.414;9.784;2024-01-27T14:10:32;9.73;;;3.17;;
6251;SDS011;3159;52.414;9.784;2024-01-27T14:13:00;8.77;;;3.43;;
6251;SDS011;3159;52.414;9.784;2024-01-27T14:15:29;12.17;;;3.40;;
6251;SDS011;3159;52.414;9.784;2024-01-27T14:17:56;8.73;;;3.27;;
6251;SDS011;3159;52.414;9.784;2024-01-27T14:20:23;12.50;;;3.70;;
6251;SDS011;3159;52.414;9.784;2024-01-27T14:22:51;8.43;;;3.03;;
6251;SDS011;3159;52.414;9.784;2024-01-27T14:25:18;10.33;;;3.37;;
6251;SDS011;3159;52.414;9.784;2024-01-27T14:27:45;10.83;;;3.60;;
6251;SDS011;3159;52.414;9.784;2024-01-27T14:30:12;8.37;;;3.27;;
6251;SDS011;3159;52.414;9.784;2024-01-27T14:32:39;11.97;;;3.73;;
6251;SDS011;3159;52.414;9.784;2024-01-27T14:35:07;11.13;;;3.30;;
6251;SDS011;3159;52.414;9.784;2024-01-27T14:37:34;12.60;;;3.53;;
6251;SDS011;3159;52.414;9.784;2024-01-27T14:40:02;10.13;;;2.87;;
6251;SDS011;3159;52.414;9.784;2024-01-27T14:42:30;10.37;;;3.27;;
6251;SDS011;3159;52.414;9.784;2024-01-27T14:44:57;11.30;;;3.60;;
6251;SDS011;3159;52.414;9.784;2024-01-27T14:47:24;9.07;;;3.40;;
6251;SDS011;3159;52.414;9.784;2024-01-27T14:49:50;7.80;;;3.70;;
6251;SDS011;3159;52.414;9.784;2024-01-27T14:52:17;8.37;;;3.97;;
6251;SDS011;3159;52.414;9.784;2024-01-27T14:54:44;11.17;;;3.43;;
6251;SDS011;3159;52.414;9.784;2024-01-27T14:57:12;7.53;;;3.47;;
6251;SDS011;3159;52.414;9.784;2024-01-27T14:59:39;11.20;;;3.23;;
6251;SDS011;3159;52.414;9.784;2024-01-27T15:02:06;13.10;;;3.63;;
6251;SDS011;3159;52.414;9.784;2024-01-27T15:04:34;12.67;;;3.77;;
6251;SDS011;3159;52.414;9.784;2024-01-27T15:07:01;10.40;;;3.57;;